Time;durP1;ratioP1;P1;durP2;ratioP2;P2;SDS_P1;SDS_P2;PMS_P1;PMS_P2;Temp;Humidity;BMP_temperature;BMP_pressure;BME280_temperature;BME280_humidity;BME280_pressure;Samples;Min_cycle;Max_cycle;Signal;HPM_P1;HPM_P2
2022/08/08 00:00:00;;;;;;;6.93;3.08;;;18.00;75.50;;;;;;5074064;28;20020;-79
2022/08/08 00:02:39;;;;;;;5.28;2.50;;;18.00;75.60;;;;;;5073911;28;20095;-79
2022/08/08 00:05:10;;;;;;;5.32;2.67;;;18.00;75.70;;;;;;5073988;28;20032;-79
2022/08/08 00:08:20;;;;;;;7.28;2.47;;;18.00;76.80;;;;;;5073938;28;20041;-79
2022/08/08 00:11:16;;;;;;;6.15;2.50;;;17.90;76.20;;;;;;5056145;28;20041;-79
2022/08/08 00:13:55;;;;;;;5.82;2.33;;;17.90;76.10;;;;;;5062556;28;20037;-79
2022/08/08 00:16:48;;;;;;;8.82;2.88;;;17.90;76.10;;;;;;5072578;28;20089;-77
2022/08/08 00:19:28;;;;;;;4.45;2.60;;;17.80;76.40;;;;;;5056168;28;20028;-79
2022/08/08 00:22:04;;;;;;;6.65;2.70;;;17.80;76.60;;;;;;5074073;28;20445;-79
2022/08/08 00:24:38;;;;;;;7.75;2.30;;;17.80;76.70;;;;;;5073655;28;20090;-79
2022/08/08 00:27:09;;;;;;;5.88;2.42;;;17.80;76.70;;;;;;5074039;28;20453;-79
2022/08/08 00:29:38;;;;;;;7.10;3.13;;;17.80;77.00;;;;;;5073768;28;20407;-79
2022/08/08 00:32:16;;;;;;;4.53;1.88;;;17.70;77.10;;;;;;5055743;28;20032;-79
2022/08/08 00:35:09;;;;;;;5.43;2.53;;;17.70;77.10;;;;;;5073663;28;20104;-79
2022/08/08 00:38:01;;;;;;;6.50;2.58;;;17.70;77.10;;;;;;5055757;28;20020;-79
2022/08/08 00:40:29;;;;;;;6.90;2.58;;;17.70;77.20;;;;;;5020212;28;20029;-78
2022/08/08 00:43:43;;;;;;;4.72;2.45;;;17.60;77.10;;;;;;5055642;28;20074;-78
2022/08/08 00:46:37;;;;;;;6.47;2.40;;;17.60;77.50;;;;;;5001993;28;20046;-79
2022/08/08 00:49:15;;;;;;;5.53;2.30;;;17.60;77.30;;;;;;5055715;28;20032;-79
2022/08/08 00:52:20;;;;;;;6.90;2.35;;;17.60;77.30;;;;;;5073672;28;20036;-79
2022/08/08 00:55:28;;;;;;;5.85;2.17;;;17.50;77.40;;;;;;5073620;28;20052;-79
2022/08/08 00:58:09;;;;;;;6.63;1.95;;;17.50;77.50;;;;;;5073748;28;20096;-79
2022/08/08 01:01:09;;;;;;;7.55;2.55;;;17.50;77.50;;;;;;5077930;28;20411;-79
2022/08/08 01:03:35;;;;;;;6.60;2.38;;;17.50;78.30;;;;;;5077722;28;20021;-78
2022/08/08 01:06:42;;;;;;;6.07;2.20;;;17.40;77.70;;;;;;5059737;28;20028;-78
2022/08/08 01:09:13;;;;;;;4.22;2.42;;;17.40;78.00;;;;;;5059151;28;20048;-78
2022/08/08 01:12:05;;;;;;;6.35;2.30;;;17.40;77.90;;;;;;5077440;28;20360;-78
2022/08/08 01:14:55;;;;;;;8.15;3.00;;;17.30;78.10;;;;;;5059762;28;20037;-79
2022/08/08 01:17:30;;;;;;;3.97;2.25;;;17.30;78.20;;;;;;5077385;28;20107;-78
2022/08/08 01:20:26;;;;;;;7.15;3.08;;;17.20;78.20;;;;;;5077366;28;20036;-76
2022/08/08 01:23:07;;;;;;;6.93;2.85;;;17.20;78.40;;;;;;5077467;28;20062;-76
2022/08/08 01:26:24;;;;;;;5.18;3.15;;;17.20;78.40;;;;;;5077349;28;20075;-76
2022/08/08 01:29:07;;;;;;;7.05;2.55;;;17.20;78.80;;;;;;4995512;28;20171;-76
2022/08/08 01:31:52;;;;;;;5.30;2.17;;;17.10;78.80;;;;;;5059321;28;20108;-78
2022/08/08 01:34:47;;;;;;;;;;;17.10;79.00;;;;;;5077338;28;20032;-77
2022/08/08 01:37:50;;;;;;;6.97;2.30;;;17.00;79.10;;;;;;5076975;28;20004;-76
2022/08/08 01:40:47;;;;;;;4.75;2.15;;;17.00;78.90;;;;;;5058535;28;20115;-77
2022/08/08 01:43:37;;;;;;;7.75;3.10;;;17.00;79.10;;;;;;5043448;28;20029;-77
2022/08/08 01:46:15;;;;;;;4.65;2.25;;;16.90;79.20;;;;;;5077008;28;20464;-77
2022/08/08 01:49:05;;;;;;;6.55;2.58;;;16.90;79.40;;;;;;5076612;28;20028;-77
2022/08/08 01:51:39;;;;;;;6.28;2.88;;;16.90;79.50;;;;;;5076556;28;20023;-77
2022/08/08 01:54:33;;;;;;;7.25;2.97;;;16.90;79.70;;;;;;5058903;28;20063;-77
2022/08/08 01:57:29;;;;;;;6.45;3.30;;;16.80;79.90;;;;;;5076502;28;20112;-77
2022/08/08 02:00:27;;;;;;;4.75;2.58;;;16.80;80.20;;;;;;5058224;28;20016;-77
2022/08/08 02:03:25;;;;;;;6.22;3.00;;;16.80;80.40;;;;;;5076220;28;20067;-77
2022/08/08 02:06:19;;;;;;;6.00;2.40;;;16.70;80.60;;;;;;5058180;28;20026;-77
2022/08/08 02:09:15;;;;;;;7.07;2.42;;;16.70;80.80;;;;;;5075892;28;20484;-77
2022/08/08 02:11:43;;;;;;;5.40;2.75;;;16.60;80.90;;;;;;5075279;28;20025;-77
2022/08/08 02:14:36;;;;;;;4.97;2.78;;;16.60;80.90;;;;;;5076206;28;20029;-77
2022/08/08 02:17:23;;;;;;;8.35;2.75;;;16.60;81.20;;;;;;5076014;28;20024;-77
2022/08/08 02:19:59;;;;;;;7.07;2.78;;;16.50;81.40;;;;;;5058461;28;20230;-77
2022/08/08 02:22:56;;;;;;;9.02;2.97;;;16.60;81.60;;;;;;5076122;28;20404;-77
2022/08/08 02:25:39;;;;;;;5.88;2.58;;;16.60;81.80;;;;;;5057937;28;20509;-77
2022/08/08 02:28:09;;;;;;;8.80;3.20;;;16.60;82.00;;;;;;5076237;28;20025;-77
2022/08/08 02:30:59;;;;;;;5.93;3.05;;;16.50;82.10;;;;;;5075624;28;20386;-77
2022/08/08 02:34:10;;;;;;;5.45;2.80;;;16.50;82.30;;;;;;5057493;28;20033;-77
2022/08/08 02:36:49;;;;;;;6.97;2.97;;;16.50;82.50;;;;;;5044682;28;20078;-77
2022/08/08 02:39:54;;;;;;;6.93;2.97;;;16.40;82.40;;;;;;5075556;28;20024;-78
2022/08/08 02:42:41;;;;;;;6.40;3.63;;;16.30;82.50;;;;;;5075196;28;20025;-77
2022/08/08 02:45:23;;;;;;;6.90;3.40;;;16.30;82.60;;;;;;5075340;28;20103;-77
2022/08/08 02:47:54;;;;;;;8.18;4.03;;;16.20;82.80;;;;;;5075275;28;20066;-77
2022/08/08 02:50:47;;;;;;;7.00;3.40;;;16.10;82.90;;;;;;5075772;28;20024;-77
2022/08/08 02:53:57;;;;;;;7.05;3.25;;;16.10;83.30;;;;;;5057725;28;20033;-77
2022/08/08 02:56:52;;;;;;;6.50;3.20;;;16.10;83.50;;;;;;5075332;28;20103;-77
2022/08/08 02:59:55;;;;;;;5.68;3.25;;;16.00;83.60;;;;;;5075574;28;20081;-77
2022/08/08 03:02:51;;;;;;;6.97;3.17;;;16.00;83.70;;;;;;5075418;28;20033;-77
2022/08/08 03:05:51;;;;;;;7.70;3.33;;;15.90;83.70;;;;;;5057271;28;20426;-77
2022/08/08 03:08:41;;;;;;;6.55;2.80;;;15.90;83.90;;;;;;5074993;28;20119;-77
2022/08/08 03:11:47;;;;;;;7.57;2.90;;;15.90;84.10;;;;;;5057351;28;20440;-77
2022/08/08 03:14:40;;;;;;;5.70;3.08;;;15.80;84.30;;;;;;5052253;28;20047;-77
2022/08/08 03:17:10;;;;;;;6.70;3.47;;;15.80;84.40;;;;;;5074987;28;20049;-78
2022/08/08 03:19:58;;;;;;;7.72;3.65;;;15.80;84.50;;;;;;5057477;28;20060;-77
2022/08/08 03:22:24;;;;;;;7.75;3.10;;;15.70;84.70;;;;;;5059188;28;20075;-76
2022/08/08 03:24:53;;;;;;;6.28;3.05;;;15.70;84.80;;;;;;5057304;28;20400;-76
2022/08/08 03:27:25;;;;;;;10.07;3.40;;;15.70;85.00;;;;;;5075106;28;20028;-77
2022/08/08 03:30:00;;;;;;;6.07;3.33;;;15.60;85.10;;;;;;5074799;28;20060;-76
2022/08/08 03:35:10;;;;;;;;;;;15.60;85.40;;;;;;5075181;28;20536;-76
2022/08/08 03:37:36;;;;;;;6.78;3.28;;;15.60;85.60;;;;;;5074715;28;19912;-77
2022/08/08 03:40:03;;;;;;;6.53;3.40;;;15.60;85.40;;;;;;5056787;28;20408;-77
2022/08/08 03:42:29;;;;;;;6.25;3.47;;;15.50;85.50;;;;;;5074749;28;20025;-77
2022/08/08 03:44:55;;;;;;;4.93;3.15;;;15.50;85.80;;;;;;5074935;28;20035;-77
2022/08/08 03:47:21;;;;;;;12.63;4.07;;;15.50;86.10;;;;;;5056440;28;20089;-77
2022/08/08 03:49:48;;;;;;;9.88;3.92;;;15.50;86.30;;;;;;5056552;28;20165;-77
2022/08/08 03:52:14;;;;;;;9.43;4.35;;;15.50;86.40;;;;;;5056304;28;20398;-77
2022/08/08 03:54:44;;;;;;;6.93;3.75;;;15.50;86.70;;;;;;5074176;28;20028;-77
2022/08/08 03:57:15;;;;;;;6.82;4.20;;;15.50;86.70;;;;;;5056611;28;20033;-77
2022/08/08 03:59:40;;;;;;;7.65;3.58;;;15.50;86.80;;;;;;5056290;28;20456;-77
2022/08/08 04:02:18;;;;;;;7.85;3.92;;;15.50;86.90;;;;;;5074407;28;20115;-77
2022/08/08 04:04:45;;;;;;;9.80;4.20;;;15.50;87.10;;;;;;5056494;28;20033;-77
2022/08/08 04:07:11;;;;;;;7.10;3.83;;;15.50;87.20;;;;;;5074289;28;20058;-77
2022/08/08 04:09:37;;;;;;;8.73;4.03;;;15.50;87.30;;;;;;5073844;28;20507;-77
2022/08/08 04:12:03;;;;;;;9.10;4.78;;;15.50;88.10;;;;;;5074386;28;20029;-77
2022/08/08 04:14:29;;;;;;;9.77;3.20;;;15.50;87.60;;;;;;5074091;28;20128;-77
2022/08/08 04:16:55;;;;;;;7.28;3.67;;;15.50;87.70;;;;;;5074185;28;20037;-78
2022/08/08 04:19:21;;;;;;;6.55;3.60;;;15.50;87.80;;;;;;5073641;28;20028;-76
2022/08/08 04:21:46;;;;;;;6.85;3.65;;;15.50;87.90;;;;;;5073620;28;20047;-77
2022/08/08 04:24:12;;;;;;;5.32;3.38;;;15.50;88.00;;;;;;5055762;28;20093;-77
2022/08/08 04:26:38;;;;;;;9.57;3.47;;;15.50;88.10;;;;;;5039120;28;20059;-77
2022/08/08 04:29:03;;;;;;;7.70;3.53;;;15.50;88.10;;;;;;5073415;28;20029;-77
2022/08/08 04:31:29;;;;;;;8.20;3.95;;;15.40;88.00;;;;;;5072729;28;20024;-77
2022/08/08 04:33:55;;;;;;;7.03;3.15;;;15.40;88.10;;;;;;5072694;28;20035;-77
2022/08/08 04:36:20;;;;;;;8.70;4.10;;;15.40;88.20;;;;;;5055452;28;20028;-77
2022/08/08 04:38:46;;;;;;;8.25;4.15;;;15.40;88.20;;;;;;5055586;28;20039;-77
2022/08/08 04:41:11;;;;;;;7.38;3.65;;;15.40;88.90;;;;;;5055742;28;20036;-77
2022/08/08 04:43:37;;;;;;;8.05;3.42;;;15.30;88.30;;;;;;5055704;28;20036;-77
2022/08/08 04:46:04;;;;;;;11.13;3.92;;;15.40;88.50;;;;;;5055634;28;20469;-77
2022/08/08 04:48:30;;;;;;;6.97;3.67;;;15.40;88.50;;;;;;5073503;28;20497;-77
2022/08/08 04:50:56;;;;;;;6.22;3.38;;;15.40;88.60;;;;;;5073880;28;20033;-77
2022/08/08 04:53:21;;;;;;;5.80;3.45;;;15.40;88.70;;;;;;5073478;28;20033;-78
2022/08/08 04:55:47;;;;;;;6.85;3.30;;;15.40;88.90;;;;;;5055709;28;20040;-78
2022/08/08 04:58:14;;;;;;;8.23;3.20;;;15.40;89.00;;;;;;5073801;28;20029;-77
2022/08/08 05:00:42;;;;;;;7.60;3.25;;;15.40;89.20;;;;;;5055697;28;20378;-77
2022/08/08 05:03:08;;;;;;;9.95;3.83;;;15.40;89.30;;;;;;5055138;28;20120;-78
2022/08/08 05:05:33;;;;;;;7.90;3.42;;;15.50;89.30;;;;;;5055658;28;20056;-78
2022/08/08 05:07:59;;;;;;;7.22;3.33;;;15.50;89.30;;;;;;5073268;28;20412;-77
2022/08/08 05:10:29;;;;;;;6.35;3.15;;;15.50;89.40;;;;;;5073520;28;20543;-77
2022/08/08 05:12:57;;;;;;;9.95;3.00;;;15.50;89.70;;;;;;5073222;28;20098;-76
2022/08/08 05:15:23;;;;;;;5.82;2.65;;;15.50;90.00;;;;;;5072968;28;20469;-77
2022/08/08 05:17:49;;;;;;;5.72;2.92;;;15.60;89.90;;;;;;5055219;28;20054;-78
2022/08/08 05:20:15;;;;;;;5.07;2.28;;;15.70;89.80;;;;;;5069655;28;20145;-77
2022/08/08 05:22:40;;;;;;;2.97;1.73;;;15.70;89.80;;;;;;5065923;28;20029;-79
2022/08/08 05:25:06;;;;;;;4.03;2.47;;;15.80;89.80;;;;;;5054216;28;20485;-78
2022/08/08 05:27:32;;;;;;;5.75;2.05;;;15.80;89.80;;;;;;5059337;28;20598;-78
2022/08/08 05:29:57;;;;;;;5.88;2.13;;;15.80;89.70;;;;;;5063100;28;20067;-78
2022/08/08 05:32:23;;;;;;;4.88;1.90;;;15.90;89.80;;;;;;5072690;28;20032;-78
2022/08/08 05:34:51;;;;;;;3.95;1.80;;;16.00;89.90;;;;;;5072433;28;20025;-78
2022/08/08 05:37:30;;;;;;;6.30;1.98;;;16.00;89.80;;;;;;5055239;28;20029;-78
2022/08/08 05:39:57;;;;;;;5.72;1.83;;;16.10;89.90;;;;;;5073082;28;20060;-78
2022/08/08 05:42:48;;;;;;;5.00;1.85;;;16.10;89.80;;;;;;5073205;28;20029;-78
2022/08/08 05:45:14;;;;;;;5.30;1.85;;;16.20;89.90;;;;;;5073134;28;20036;-79
2022/08/08 05:47:41;;;;;;;3.38;2.00;;;16.20;89.90;;;;;;5058604;28;20388;-79
2022/08/08 05:50:08;;;;;;;3.95;1.77;;;16.20;89.80;;;;;;5076584;28;20193;-78
2022/08/08 05:52:35;;;;;;;3.75;1.73;;;16.30;89.90;;;;;;5076632;28;20032;-79
2022/08/08 05:55:10;;;;;;;4.65;1.92;;;16.40;90.00;;;;;;5041900;28;20025;-79
2022/08/08 05:57:38;;;;;;;4.47;1.58;;;16.40;90.00;;;;;;5058323;28;20032;-79
2022/08/08 06:00:07;;;;;;;5.75;1.55;;;16.50;90.00;;;;;;5058743;28;20548;-79
2022/08/08 06:05:19;;;;;;;7.60;1.50;;;16.60;89.70;;;;;;5061644;28;20044;-79
2022/08/08 06:07:47;;;;;;;5.97;1.70;;;16.60;90.00;;;;;;5075912;28;20065;-79
2022/08/08 06:10:13;;;;;;;6.30;1.95;;;16.70;90.00;;;;;;5058031;28;20055;-79
2022/08/08 06:12:40;;;;;;;3.55;1.23;;;16.70;90.10;;;;;;5076076;28;20035;-79
2022/08/08 06:15:08;;;;;;;4.00;1.27;;;16.80;90.00;;;;;;5075723;28;20031;-79
2022/08/08 06:17:35;;;;;;;2.55;1.08;;;16.80;90.00;;;;;;5075919;28;20031;-79
2022/08/08 06:20:07;;;;;;;2.50;0.93;;;16.90;90.00;;;;;;5075853;28;20028;-79
2022/08/08 06:22:33;;;;;;;4.07;0.98;;;16.90;89.80;;;;;;5075627;28;20016;-79
2022/08/08 06:24:58;;;;;;;3.75;1.20;;;17.00;89.70;;;;;;5075585;28;20039;-79
2022/08/08 06:27:37;;;;;;;2.10;0.75;;;17.00;89.50;;;;;;5075482;28;20020;-79
2022/08/08 06:30:07;;;;;;;3.72;0.93;;;17.10;89.40;;;;;;5075507;28;20035;-79
2022/08/08 06:32:40;;;;;;;4.50;0.90;;;17.10;89.20;;;;;;5075636;28;20108;-79
2022/08/08 06:35:09;;;;;;;4.03;1.02;;;17.10;88.90;;;;;;5075426;28;20103;-79
2022/08/08 06:37:37;;;;;;;5.18;1.30;;;17.20;88.70;;;;;;5075611;28;20031;-79
2022/08/08 06:40:07;;;;;;;4.28;1.70;;;17.30;88.50;;;;;;5075666;28;20032;-79
2022/08/08 06:42:35;;;;;;;3.83;1.00;;;17.30;88.30;;;;;;5057526;28;20061;-79
2022/08/08 06:45:02;;;;;;;3.60;1.05;;;17.40;88.30;;;;;;5062233;28;20028;-78
2022/08/08 06:47:28;;;;;;;2.08;0.88;;;17.40;88.20;;;;;;5073255;28;20408;-78
2022/08/08 06:49:54;;;;;;;3.25;1.00;;;17.50;88.10;;;;;;5075457;28;20090;-78
2022/08/08 06:52:20;;;;;;;5.45;1.00;;;17.50;87.90;;;;;;5075694;28;20435;-78
2022/08/08 06:54:47;;;;;;;3.42;1.00;;;17.60;87.80;;;;;;5040464;28;20024;-78
2022/08/08 06:57:13;;;;;;;4.70;1.00;;;17.70;87.70;;;;;;5074871;28;20495;-78
2022/08/08 06:59:38;;;;;;;4.07;0.85;;;17.70;87.50;;;;;;5040719;28;20028;-78
2022/08/08 07:02:05;;;;;;;3.15;0.88;;;17.80;87.30;;;;;;5075302;28;20464;-79
2022/08/08 07:04:37;;;;;;;3.95;1.42;;;17.80;87.10;;;;;;5075022;28;20025;-79
2022/08/08 07:07:07;;;;;;;3.65;0.82;;;17.80;87.00;;;;;;5075448;28;20029;-76
2022/08/08 07:09:57;;;;;;;4.43;0.88;;;17.90;87.30;;;;;;5074115;28;20048;-74
2022/08/08 07:12:36;;;;;;;7.38;1.05;;;18.00;86.50;;;;;;5063974;28;20438;-75
2022/08/08 07:15:07;;;;;;;5.28;1.00;;;18.10;86.40;;;;;;5074499;28;20024;-76
2022/08/08 07:17:46;;;;;;;3.33;0.95;;;18.10;86.30;;;;;;5074467;28;20372;-76
2022/08/08 07:20:21;;;;;;;3.13;0.80;;;18.10;86.10;;;;;;5074632;28;20056;-76
2022/08/08 07:23:21;;;;;;;4.47;1.15;;;18.20;85.90;;;;;;5073175;28;20108;-76
2022/08/08 07:25:49;;;;;;;4.88;0.85;;;18.30;85.80;;;;;;5071037;28;20032;-76
2022/08/08 07:28:18;;;;;;;4.65;1.02;;;18.30;85.30;;;;;;5056473;28;20020;-76
2022/08/08 07:30:45;;;;;;;4.47;0.77;;;18.40;85.10;;;;;;5073278;28;20595;-75
2022/08/08 07:33:13;;;;;;;2.35;0.93;;;18.50;84.50;;;;;;5056613;28;20020;-76
2022/08/08 07:35:38;;;;;;;2.90;0.85;;;18.50;84.40;;;;;;5074618;28;20111;-76
2022/08/08 07:38:05;;;;;;;4.05;0.93;;;18.60;84.20;;;;;;5056707;28;20097;-75
2022/08/08 07:40:32;;;;;;;3.05;0.90;;;18.60;83.30;;;;;;5074450;28;20074;-76
2022/08/08 07:43:01;;;;;;;3.55;1.00;;;18.70;83.10;;;;;;5056596;28;20039;-75
2022/08/08 07:45:27;;;;;;;3.85;1.30;;;18.70;83.00;;;;;;5073071;28;20027;-76
2022/08/08 07:47:53;;;;;;;2.85;0.90;;;18.70;82.90;;;;;;5056657;28;20119;-76
2022/08/08 07:50:22;;;;;;;6.18;1.05;;;18.80;82.10;;;;;;5056789;28;20487;-74
2022/08/08 07:52:54;;;;;;;6.55;1.05;;;18.90;81.70;;;;;;5074378;28;20459;-74
2022/08/08 07:55:30;;;;;;;3.00;0.80;;;19.00;80.90;;;;;;5073947;28;20034;-75
2022/08/08 07:58:13;;;;;;;4.30;1.25;;;19.00;80.70;;;;;;5074204;28;20485;-72
2022/08/08 08:00:45;;;;;;;2.63;0.70;;;19.00;80.20;;;;;;5074274;28;20383;-73
2022/08/08 08:03:17;;;;;;;2.90;0.75;;;19.10;79.60;;;;;;5072896;28;20029;-77
2022/08/08 08:05:46;;;;;;;2.65;0.80;;;19.10;79.10;;;;;;5052621;28;20064;-85
2022/08/08 08:08:16;;;;;;;3.78;0.60;;;19.10;78.90;;;;;;5035911;28;20059;-86
2022/08/08 08:10:45;;;;;;;5.35;1.20;;;19.20;78.80;;;;;;5053956;28;20051;-86
2022/08/08 08:13:48;;;;;;;3.28;0.70;;;19.30;78.60;;;;;;5053797;28;20093;-84
2022/08/08 08:16:19;;;;;;;1.58;0.60;;;19.30;78.40;;;;;;5052414;28;20043;-85
2022/08/08 08:18:51;;;;;;;2.58;0.70;;;19.40;78.20;;;;;;5039108;28;20025;-86
2022/08/08 08:21:18;;;;;;;3.95;0.75;;;19.50;77.80;;;;;;5072290;28;20025;-86
2022/08/08 08:23:44;;;;;;;3.63;0.77;;;19.50;77.20;;;;;;5056177;28;20078;-86
2022/08/08 08:26:12;;;;;;;2.53;0.50;;;19.60;77.10;;;;;;5074224;28;20037;-87
2022/08/08 08:28:39;;;;;;;2.38;0.60;;;19.60;77.00;;;;;;5055203;28;20029;-88
2022/08/08 08:31:05;;;;;;;1.67;0.40;;;19.70;76.90;;;;;;5052821;28;20477;-88
2022/08/08 08:33:31;;;;;;;2.95;0.55;;;19.80;76.80;;;;;;5069378;28;20028;-87
2022/08/08 08:35:57;;;;;;;1.35;0.55;;;19.90;76.60;;;;;;5052751;28;20025;-86
2022/08/08 08:38:23;;;;;;;1.88;0.40;;;19.90;76.40;;;;;;5053920;28;20033;-86
2022/08/08 08:40:49;;;;;;;1.83;0.50;;;20.00;75.70;;;;;;5035954;28;20381;-87
2022/08/08 08:43:18;;;;;;;2.95;0.65;;;20.00;75.20;;;;;;5053967;28;20021;-87
2022/08/08 08:45:46;;;;;;;2.63;0.57;;;20.10;74.80;;;;;;5069057;28;20358;-87
2022/08/08 08:48:13;;;;;;;3.80;1.15;;;20.10;74.70;;;;;;5052424;28;20028;-88
2022/08/08 08:50:42;;;;;;;5.05;0.88;;;20.20;74.60;;;;;;5036330;28;20498;-83
2022/08/08 08:53:10;;;;;;;2.38;0.60;;;20.30;74.20;;;;;;5052361;28;20549;-87
2022/08/08 08:55:38;;;;;;;2.22;0.52;;;20.40;73.90;;;;;;5055984;28;20453;-85
2022/08/08 08:58:07;;;;;;;1.25;0.43;;;20.40;73.00;;;;;;5055627;28;20074;-88
2022/08/08 09:00:35;;;;;;;1.05;0.30;;;20.50;72.70;;;;;;5055946;28;20465;-88
2022/08/08 09:03:07;;;;;;;5.22;0.55;;;20.60;72.50;;;;;;5055959;28;20025;-88
2022/08/08 09:05:38;;;;;;;2.05;0.40;;;20.60;72.00;;;;;;5055906;28;20473;-79
2022/08/08 09:08:06;;;;;;;1.35;0.40;;;20.60;71.80;;;;;;5073065;28;20079;-79
2022/08/08 09:10:36;;;;;;;2.15;0.50;;;20.70;71.60;;;;;;5038795;28;20040;-78
2022/08/08 09:13:03;;;;;;;2.17;0.50;;;20.80;70.60;;;;;;5055409;28;20052;-79
2022/08/08 09:15:30;;;;;;;1.40;0.30;;;20.90;70.40;;;;;;5055426;28;20086;-77
2022/08/08 09:17:57;;;;;;;3.40;0.50;;;21.00;69.40;;;;;;5038913;28;20025;-79
2022/08/08 09:20:25;;;;;;;1.50;0.40;;;21.10;69.10;;;;;;5072304;28;20017;-78
2022/08/08 09:22:53;;;;;;;0.88;0.30;;;21.20;68.70;;;;;;5042451;28;20476;-79
2022/08/08 09:25:19;;;;;;;1.42;0.32;;;21.50;68.50;;;;;;5042731;28;20024;-79
2022/08/08 09:27:45;;;;;;;2.67;0.50;;;21.60;68.10;;;;;;5065778;28;20111;-78
2022/08/08 09:30:13;;;;;;;1.40;0.40;;;21.90;67.50;;;;;;5055773;28;20076;-78
2022/08/08 09:33:08;;;;;;;1.90;0.40;;;22.10;66.20;;;;;;5072319;28;20086;-80
2022/08/08 09:35:37;;;;;;;1.23;0.30;;;22.20;65.60;;;;;;5053683;28;20033;-79
2022/08/08 09:38:03;;;;;;;1.92;0.30;;;22.40;65.80;;;;;;5057013;28;20109;-79
2022/08/08 09:40:33;;;;;;;1.75;0.40;;;22.50;65.80;;;;;;5072029;28;20025;-79
2022/08/08 09:43:28;;;;;;;1.60;0.40;;;22.50;65.00;;;;;;5072420;28;20432;-78
2022/08/08 09:46:01;;;;;;;0.57;0.28;;;22.70;64.40;;;;;;5071989;28;20032;-79
2022/08/08 09:48:32;;;;;;;2.35;0.40;;;22.80;64.20;;;;;;5056444;28;20033;-78
2022/08/08 09:50:59;;;;;;;1.05;0.40;;;22.90;63.90;;;;;;5042220;28;20443;-79
2022/08/08 09:53:40;;;;;;;2.53;0.43;;;22.90;63.40;;;;;;5042511;28;20043;-79
2022/08/08 09:56:09;;;;;;;0.90;0.30;;;23.00;63.00;;;;;;5076517;28;20059;-79
2022/08/08 09:58:43;;;;;;;1.08;0.40;;;23.10;62.70;;;;;;5042402;28;20366;-79
2022/08/08 10:01:09;;;;;;;0.90;0.30;;;23.20;62.60;;;;;;5076255;28;20563;-79
2022/08/08 10:03:36;;;;;;;1.75;0.40;;;23.30;62.30;;;;;;5058311;28;20444;-79
2022/08/08 10:06:15;;;;;;;3.72;0.40;;;23.40;62.00;;;;;;5058806;28;20432;-79
2022/08/08 10:08:48;;;;;;;2.10;0.45;;;23.50;61.20;;;;;;5067284;28;20144;-77
2022/08/08 10:11:22;;;;;;;2.70;0.50;;;23.60;60.80;;;;;;5056398;28;20046;-78
2022/08/08 10:13:56;;;;;;;0.77;0.30;;;23.70;60.50;;;;;;5056294;28;20028;-79
2022/08/08 10:16:22;;;;;;;2.15;0.50;;;23.70;60.20;;;;;;5054703;28;20120;-80
2022/08/08 10:18:48;;;;;;;2.10;0.40;;;23.80;60.10;;;;;;5054834;28;20029;-78
2022/08/08 10:21:18;;;;;;;1.17;0.30;;;23.80;59.60;;;;;;5054823;28;20393;-78
2022/08/08 10:23:49;;;;;;;1.42;0.38;;;23.90;59.20;;;;;;5071570;28;20017;-78
2022/08/08 10:26:38;;;;;;;2.60;0.40;;;24.00;58.80;;;;;;5071332;28;20043;-79
2022/08/08 10:29:07;;;;;;;2.40;0.40;;;24.10;58.60;;;;;;5055768;28;20013;-79
2022/08/08 10:34:20;;;;;;;2.47;0.73;;;24.50;58.40;;;;;;5056284;28;20044;-86
2022/08/08 10:36:47;;;;;;;4.28;0.40;;;24.70;58.10;;;;;;5056120;28;20485;-87
2022/08/08 10:39:17;;;;;;;1.02;0.40;;;24.70;57.70;;;;;;5071701;28;20021;-88
2022/08/08 10:41:45;;;;;;;0.75;0.30;;;24.80;57.70;;;;;;5070396;28;20358;-87
2022/08/08 10:44:17;;;;;;;2.30;0.30;;;24.70;57.30;;;;;;5076255;28;20021;-87
2022/08/08 10:46:43;;;;;;;3.85;0.43;;;24.80;56.90;;;;;;5060096;28;20024;-86
2022/08/08 10:49:18;;;;;;;0.90;0.20;;;24.80;56.60;;;;;;5043239;28;20040;-87
2022/08/08 10:51:44;;;;;;;1.63;0.40;;;24.70;56.30;;;;;;5058138;28;20016;-87
2022/08/08 10:54:19;;;;;;;2.53;0.50;;;24.70;56.00;;;;;;5041418;28;20541;-87
2022/08/08 10:56:44;;;;;;;1.92;0.30;;;24.60;55.60;;;;;;5057969;28;20021;-83
2022/08/08 10:59:10;;;;;;;2.10;0.30;;;24.60;55.60;;;;;;5058014;28;20024;-84
2022/08/08 11:01:38;;;;;;;2.28;0.38;;;24.50;55.40;;;;;;5075608;28;20020;-84
2022/08/08 11:04:08;;;;;;;1.55;0.30;;;24.60;55.60;;;;;;5076375;28;20051;-81
2022/08/08 11:06:35;;;;;;;0.55;0.20;;;25.10;55.90;;;;;;5058881;28;20452;-82
2022/08/08 11:09:03;;;;;;;1.00;0.40;;;25.40;55.80;;;;;;5058089;28;20060;-84
2022/08/08 11:11:40;;;;;;;1.50;0.35;;;25.60;55.50;;;;;;5073974;28;20028;-83
2022/08/08 11:14:07;;;;;;;1.92;0.30;;;25.70;55.00;;;;;;5074924;28;20020;-83
2022/08/08 11:16:34;;;;;;;2.08;0.30;;;25.70;54.70;;;;;;5057256;28;20029;-83
2022/08/08 11:19:02;;;;;;;1.13;0.32;;;25.80;54.50;;;;;;5074986;28;20075;-82
2022/08/08 11:21:33;;;;;;;0.70;0.20;;;25.80;54.20;;;;;;5074561;28;20024;-84
2022/08/08 11:24:03;;;;;;;1.35;0.20;;;25.90;54.70;;;;;;5041034;28;20028;-84
2022/08/08 11:26:30;;;;;;;1.10;0.30;;;25.90;53.90;;;;;;5056729;28;20066;-83
2022/08/08 11:29:01;;;;;;;1.75;0.22;;;26.00;53.70;;;;;;5056874;28;20079;-83
2022/08/08 11:31:32;;;;;;;1.42;0.30;;;26.00;53.50;;;;;;5056788;28;20362;-83
2022/08/08 11:33:59;;;;;;;3.53;0.32;;;26.10;53.30;;;;;;5074415;28;20016;-83
2022/08/08 11:36:25;;;;;;;2.35;0.30;;;26.00;53.00;;;;;;5074321;28;20112;-83
2022/08/08 11:38:52;;;;;;;1.65;0.22;;;26.10;53.00;;;;;;5056554;28;20032;-84
2022/08/08 11:41:18;;;;;;;2.22;0.30;;;26.20;52.90;;;;;;5056455;28;20115;-83
2022/08/08 11:43:45;;;;;;;1.95;0.30;;;26.40;52.70;;;;;;5055773;28;20388;-83
2022/08/08 11:46:12;;;;;;;1.13;0.28;;;26.60;52.40;;;;;;5056485;28;20397;-84
2022/08/08 11:48:38;;;;;;;1.75;0.30;;;26.80;52.20;;;;;;5056392;28;20044;-84
2022/08/08 11:51:05;;;;;;;0.93;0.25;;;26.90;51.80;;;;;;5056186;28;20032;-83
2022/08/08 11:53:31;;;;;;;1.38;0.40;;;27.00;51.50;;;;;;5072857;28;20497;-82
2022/08/08 11:55:57;;;;;;;1.95;0.30;;;27.00;51.10;;;;;;5073881;28;20378;-84
2022/08/08 11:58:33;;;;;;;2.88;0.30;;;27.10;50.80;;;;;;5039652;28;20088;-83
2022/08/08 12:01:03;;;;;;;1.13;0.25;;;27.10;51.30;;;;;;5073802;28;20487;-83
2022/08/08 12:03:34;;;;;;;1.48;0.28;;;27.00;50.80;;;;;;5056623;28;20044;-84
2022/08/08 12:06:11;;;;;;;0.95;0.30;;;27.00;50.70;;;;;;5056019;28;20119;-78
2022/08/08 12:08:38;;;;;;;1.15;0.30;;;26.90;50.50;;;;;;5073769;28;20068;-77
2022/08/08 12:11:10;;;;;;;3.85;0.30;;;26.90;50.50;;;;;;5072902;28;20372;-77
2022/08/08 12:13:36;;;;;;;2.05;0.20;;;27.00;50.50;;;;;;5072409;28;20013;-83
2022/08/08 12:16:15;;;;;;;2.38;0.50;;;27.00;50.50;;;;;;5055977;28;20569;-84
2022/08/08 12:18:51;;;;;;;2.30;0.40;;;27.10;50.50;;;;;;5073753;28;20024;-84
2022/08/08 12:21:27;;;;;;;1.95;0.22;;;27.10;50.20;;;;;;5073674;28;20035;-84
2022/08/08 12:24:07;;;;;;;1.88;0.30;;;27.10;50.00;;;;;;5055914;28;20040;-83
2022/08/08 12:26:42;;;;;;;2.13;0.30;;;27.10;49.70;;;;;;5055786;28;20029;-83
2022/08/08 12:29:37;;;;;;;1.30;0.40;;;27.10;49.70;;;;;;5072337;28;20024;-84
2022/08/08 12:32:06;;;;;;;1.65;0.30;;;27.30;49.70;;;;;;5033794;28;20508;-84
2022/08/08 12:34:37;;;;;;;0.95;0.30;;;27.50;49.70;;;;;;5074348;28;20638;-83
2022/08/08 12:37:09;;;;;;;2.00;0.30;;;27.60;49.30;;;;;;5053382;28;20088;-83
2022/08/08 12:39:35;;;;;;;1.20;0.40;;;27.80;49.10;;;;;;5053315;28;20027;-84
2022/08/08 12:42:01;;;;;;;1.13;0.30;;;27.80;49.10;;;;;;5053578;28;20071;-83
2022/08/08 12:44:28;;;;;;;1.65;0.17;;;27.80;49.10;;;;;;5035942;28;20025;-84
2022/08/08 12:46:58;;;;;;;2.08;0.40;;;27.80;49.20;;;;;;5052228;28;20021;-84
2022/08/08 12:49:29;;;;;;;1.92;0.30;;;27.70;49.10;;;;;;5054052;28;20040;-83
2022/08/08 12:51:56;;;;;;;1.27;0.30;;;27.70;49.00;;;;;;5037872;28;20035;-83
2022/08/08 12:54:26;;;;;;;1.27;0.20;;;27.80;48.90;;;;;;5057589;28;20025;-83
2022/08/08 12:56:53;;;;;;;1.80;0.22;;;27.70;48.50;;;;;;5059240;28;20481;-84
2022/08/08 12:59:28;;;;;;;0.90;0.30;;;27.60;48.30;;;;;;5054779;28;20028;-83
2022/08/08 13:02:00;;;;;;;1.73;0.40;;;27.70;48.60;;;;;;5037193;28;20572;-84
2022/08/08 13:04:31;;;;;;;1.25;0.22;;;27.90;48.90;;;;;;5054092;28;20025;-83
2022/08/08 13:07:06;;;;;;;1.35;0.20;;;28.10;48.50;;;;;;5055876;28;20474;-83
2022/08/08 13:09:35;;;;;;;1.20;0.10;;;28.30;48.20;;;;;;5034743;28;20058;-83
2022/08/08 13:12:09;;;;;;;1.67;0.25;;;28.40;48.00;;;;;;5034736;28;20112;-84
2022/08/08 13:14:50;;;;;;;2.22;0.30;;;28.50;48.50;;;;;;5049825;28;20027;-84
2022/08/08 13:17:21;;;;;;;1.10;0.20;;;28.80;47.30;;;;;;5033924;28;20537;-84
2022/08/08 13:19:47;;;;;;;0.57;0.20;;;29.00;47.30;;;;;;5032633;28;20022;-84
2022/08/08 13:22:16;;;;;;;1.17;0.30;;;29.20;47.00;;;;;;5049061;28;20373;-85
2022/08/08 13:24:41;;;;;;;1.48;0.30;;;29.30;46.60;;;;;;5049424;28;20025;-84
2022/08/08 13:27:12;;;;;;;1.90;0.35;;;29.30;46.30;;;;;;5033983;28;20554;-84
2022/08/08 13:29:48;;;;;;;0.93;0.20;;;29.40;46.20;;;;;;5036264;28;20021;-84